Norway, Kansas
Current Conditions -  °F | °C
As of 12:55 PM on Thursday 30 Oct 2014 (Local Time) from KCNK Reporting Station
Clear Clear  
Wind Chill: 67°   Ceiling: Unl
Heat Index: 67°   Visibility: 10mi
Dew Point: 36°   Wind: 17mph
Humidity: 32%   Direction: 330°NNW
Pressure: 30.13"   Gusts: 29mph
Location:  39.7°N, 97.77°W
Report Text: KCNK 301755Z AUTO 33015G25KT 10SM CLR 19/02 A3013 RMK AO2 SLP198 T01940022 10200 20061 58002
Loading
Personal Weather Stations






























Interactive Weather Map
Tropical Storm Tracking
New forecast layout! Learn more

10-Day Weather Forecast

Advertisements
Track Severe Weather on mobile